sensor_id;sensor_type;location;lat;lon;timestamp;pressure;altitude;pressure_sealevel;temperature;humidity
26376;BME280;30544;42.196;24.336;2023-06-22T00:00:46;99340.38;;;26.52;57.19
26376;BME280;30544;42.196;24.336;2023-06-22T00:03:12;99336.72;;;26.51;57.31
26376;BME280;30544;42.196;24.336;2023-06-22T00:05:39;99340.50;;;26.43;56.81
26376;BME280;30544;42.196;24.336;2023-06-22T00:08:06;99348.09;;;26.51;56.40
26376;BME280;30544;42.196;24.336;2023-06-22T00:10:33;99343.94;;;26.49;57.21
26376;BME280;30544;42.196;24.336;2023-06-22T00:13:00;99355.31;;;26.49;57.06
26376;BME280;30544;42.196;24.336;2023-06-22T00:15:27;99358.97;;;26.49;56.91
26376;BME280;30544;42.196;24.336;2023-06-22T00:17:56;99356.38;;;26.44;57.11
26376;BME280;30544;42.196;24.336;2023-06-22T00:20:24;99350.81;;;26.27;57.42
26376;BME280;30544;42.196;24.336;2023-06-22T00:22:53;99362.81;;;26.12;58.10
26376;BME280;30544;42.196;24.336;2023-06-22T00:25:20;99360.19;;;26.06;57.76
26376;BME280;30544;42.196;24.336;2023-06-22T00:27:47;99367.38;;;25.83;58.32
26376;BME280;30544;42.196;24.336;2023-06-22T00:30:14;99376.81;;;25.96;57.97
26376;BME280;30544;42.196;24.336;2023-06-22T00:32:41;99373.28;;;25.78;58.37
26376;BME280;30544;42.196;24.336;2023-06-22T00:35:10;99373.03;;;25.62;58.88
26376;BME280;30544;42.196;24.336;2023-06-22T00:37:37;99374.53;;;25.60;59.18
26376;BME280;30544;42.196;24.336;2023-06-22T00:40:07;99371.75;;;25.51;59.81
26376;BME280;30544;42.196;24.336;2023-06-22T00:42:36;99376.91;;;25.58;58.84
26376;BME280;30544;42.196;24.336;2023-06-22T00:45:04;99380.44;;;25.55;59.00
26376;BME280;30544;42.196;24.336;2023-06-22T00:47:31;99384.84;;;25.35;59.18
26376;BME280;30544;42.196;24.336;2023-06-22T00:49:58;99377.50;;;25.42;59.02
26376;BME280;30544;42.196;24.336;2023-06-22T00:52:27;99371.47;;;25.44;59.07
26376;BME280;30544;42.196;24.336;2023-06-22T00:54:56;99362.06;;;25.52;58.49
26376;BME280;30544;42.196;24.336;2023-06-22T00:57:24;99365.72;;;25.53;59.04
26376;BME280;30544;42.196;24.336;2023-06-22T00:59:53;99370.25;;;25.54;58.64
26376;BME280;30544;42.196;24.336;2023-06-22T01:02:21;99358.78;;;25.41;58.78
26376;BME280;30544;42.196;24.336;2023-06-22T01:04:47;99364.16;;;25.64;58.31
26376;BME280;30544;42.196;24.336;2023-06-22T01:07:20;99377.63;;;25.46;58.49
26376;BME280;30544;42.196;24.336;2023-06-22T01:09:56;99380.06;;;25.27;59.31
26376;BME280;30544;42.196;24.336;2023-06-22T01:12:26;99386.78;;;25.22;59.58
26376;BME280;30544;42.196;24.336;2023-06-22T01:15:00;99385.84;;;25.09;59.37
26376;BME280;30544;42.196;24.336;2023-06-22T01:17:29;99368.66;;;25.06;59.68
26376;BME280;30544;42.196;24.336;2023-06-22T01:19:57;99372.69;;;25.05;59.37
26376;BME280;30544;42.196;24.336;2023-06-22T01:22:30;99367.78;;;25.14;59.06
26376;BME280;30544;42.196;24.336;2023-06-22T01:25:07;99377.94;;;25.24;58.54
26376;BME280;30544;42.196;24.336;2023-06-22T01:27:43;99370.16;;;24.95;59.30
26376;BME280;30544;42.196;24.336;2023-06-22T01:30:16;99375.34;;;25.01;59.25
26376;BME280;30544;42.196;24.336;2023-06-22T01:32:46;99381.63;;;25.15;58.92
26376;BME280;30544;42.196;24.336;2023-06-22T01:35:14;99380.00;;;25.06;59.30
26376;BME280;30544;42.196;24.336;2023-06-22T01:37:41;99374.25;;;25.23;59.01
26376;BME280;30544;42.196;24.336;2023-06-22T01:40:08;99370.03;;;25.29;58.49
26376;BME280;30544;42.196;24.336;2023-06-22T01:42:36;99359.88;;;25.28;58.08
26376;BME280;30544;42.196;24.336;2023-06-22T01:45:05;99357.81;;;25.37;57.87
26376;BME280;30544;42.196;24.336;2023-06-22T01:47:35;99369.84;;;25.34;58.07
26376;BME280;30544;42.196;24.336;2023-06-22T01:50:04;99366.44;;;25.20;57.76
26376;BME280;30544;42.196;24.336;2023-06-22T01:52:31;99371.28;;;25.19;57.78
26376;BME280;30544;42.196;24.336;2023-06-22T01:54:59;99367.25;;;25.21;57.83
26376;BME280;30544;42.196;24.336;2023-06-22T01:57:26;99373.16;;;25.07;58.24
26376;BME280;30544;42.196;24.336;2023-06-22T01:59:59;99373.66;;;25.00;58.05
26376;BME280;30544;42.196;24.336;2023-06-22T02:02:31;99377.59;;;25.16;57.79
26376;BME280;30544;42.196;24.336;2023-06-22T02:05:04;99368.59;;;25.14;58.05
26376;BME280;30544;42.196;24.336;2023-06-22T02:07:34;99371.78;;;25.13;58.08
26376;BME280;30544;42.196;24.336;2023-06-22T02:10:06;99361.41;;;25.17;57.92
26376;BME280;30544;42.196;24.336;2023-06-22T02:12:34;99368.44;;;25.19;57.80
26376;BME280;30544;42.196;24.336;2023-06-22T02:15:03;99373.00;;;24.95;58.54
26376;BME280;30544;42.196;24.336;2023-06-22T02:17:31;99370.66;;;24.97;58.32
26376;BME280;30544;42.196;24.336;2023-06-22T02:19:59;99369.03;;;24.87;58.65
26376;BME280;30544;42.196;24.336;2023-06-22T02:22:29;99378.03;;;24.89;58.57
26376;BME280;30544;42.196;24.336;2023-06-22T02:24:56;99381.84;;;25.02;58.43
26376;BME280;30544;42.196;24.336;2023-06-22T02:27:23;99381.84;;;25.02;58.29
26376;BME280;30544;42.196;24.336;2023-06-22T02:29:51;99379.53;;;25.04;58.20
26376;BME280;30544;42.196;24.336;2023-06-22T02:32:18;99381.50;;;24.95;58.62
26376;BME280;30544;42.196;24.336;2023-06-22T02:34:44;99384.72;;;24.84;58.83
26376;BME280;30544;42.196;24.336;2023-06-22T02:37:13;99383.09;;;24.75;59.22
26376;BME280;30544;42.196;24.336;2023-06-22T02:39:41;99390.75;;;24.66;59.76
26376;BME280;30544;42.196;24.336;2023-06-22T02:42:08;99394.63;;;24.61;59.73
26376;BME280;30544;42.196;24.336;2023-06-22T02:44:36;99400.81;;;24.54;60.08
26376;BME280;30544;42.196;24.336;2023-06-22T02:47:03;99409.00;;;24.39;60.61
26376;BME280;30544;42.196;24.336;2023-06-22T02:49:30;99403.16;;;24.35;60.75
26376;BME280;30544;42.196;24.336;2023-06-22T02:51:57;99403.31;;;24.21;61.02
26376;BME280;30544;42.196;24.336;2023-06-22T02:54:24;99411.13;;;24.24;61.15
26376;BME280;30544;42.196;24.336;2023-06-22T02:56:52;99400.63;;;23.99;61.90
26376;BME280;30544;42.196;24.336;2023-06-22T02:59:19;99399.81;;;23.90;62.54
26376;BME280;30544;42.196;24.336;2023-06-22T03:01:48;99388.16;;;24.09;62.27
26376;BME280;30544;42.196;24.336;2023-06-22T03:04:15;99398.28;;;24.18;62.01
26376;BME280;30544;42.196;24.336;2023-06-22T03:06:42;99396.63;;;24.26;61.69
26376;BME280;30544;42.196;24.336;2023-06-22T03:09:09;99396.81;;;24.21;61.84
26376;BME280;30544;42.196;24.336;2023-06-22T03:11:36;99394.63;;;24.26;61.74
26376;BME280;30544;42.196;24.336;2023-06-22T03:14:04;99400.84;;;24.37;61.11
26376;BME280;30544;42.196;24.336;2023-06-22T03:16:30;99391.31;;;24.33;61.44
26376;BME280;30544;42.196;24.336;2023-06-22T03:18:58;99393.13;;;24.46;60.88
26376;BME280;30544;42.196;24.336;2023-06-22T03:21:28;99402.13;;;24.48;60.90
26376;BME280;30544;42.196;24.336;2023-06-22T03:23:55;99401.50;;;24.43;61.07
26376;BME280;30544;42.196;24.336;2023-06-22T03:26:22;99403.31;;;24.47;60.84
26376;BME280;30544;42.196;24.336;2023-06-22T03:28:51;99404.66;;;24.33;61.20
26376;BME280;30544;42.196;24.336;2023-06-22T03:31:20;99399.34;;;24.40;61.17
26376;BME280;30544;42.196;24.336;2023-06-22T03:33:47;99410.66;;;24.40;61.17
26376;BME280;30544;42.196;24.336;2023-06-22T03:36:14;99410.31;;;24.33;61.37
26376;BME280;30544;42.196;24.336;2023-06-22T03:38:44;99417.16;;;24.49;60.96
26376;BME280;30544;42.196;24.336;2023-06-22T03:41:11;99414.31;;;24.49;61.11
26376;BME280;30544;42.196;24.336;2023-06-22T03:43:38;99409.81;;;24.48;61.15
26376;BME280;30544;42.196;24.336;2023-06-22T03:46:04;99408.94;;;24.73;60.84
26376;BME280;30544;42.196;24.336;2023-06-22T03:48:33;99404.16;;;24.56;61.12
26376;BME280;30544;42.196;24.336;2023-06-22T03:51:00;99404.97;;;24.57;61.20
26376;BME280;30544;42.196;24.336;2023-06-22T03:53:28;99420.25;;;24.90;60.32
26376;BME280;30544;42.196;24.336;2023-06-22T03:55:55;99417.53;;;25.79;57.81
26376;BME280;30544;42.196;24.336;2023-06-22T03:58:22;99419.63;;;26.53;55.76
26376;BME280;30544;42.196;24.336;2023-06-22T04:00:49;99422.41;;;26.95;54.20
26376;BME280;30544;42.196;24.336;2023-06-22T04:03:17;99418.84;;;27.55;52.69
26376;BME280;30544;42.196;24.336;2023-06-22T04:05:46;99422.47;;;28.05;51.64
26376;BME280;30544;42.196;24.336;2023-06-22T04:08:13;99425.47;;;28.49;49.84
26376;BME280;30544;42.196;24.336;2023-06-22T04:10:40;99424.66;;;28.76;49.05
26376;BME280;30544;42.196;24.336;2023-06-22T04:13:07;99426.56;;;29.00;48.92
26376;BME280;30544;42.196;24.336;2023-06-22T04:15:34;99423.19;;;29.26;48.24
26376;BME280;30544;42.196;24.336;2023-06-22T04:18:01;99417.88;;;29.40;47.41
26376;BME280;30544;42.196;24.336;2023-06-22T04:20:28;99423.75;;;29.79;46.34
26376;BME280;30544;42.196;24.336;2023-06-22T04:22:56;99429.25;;;29.87;46.40
26376;BME280;30544;42.196;24.336;2023-06-22T04:25:23;99426.50;;;29.91;45.76
26376;BME280;30544;42.196;24.336;2023-06-22T04:27:49;99433.19;;;29.99;45.70
26376;BME280;30544;42.196;24.336;2023-06-22T04:30:16;99433.63;;;30.16;45.07
26376;BME280;30544;42.196;24.336;2023-06-22T04:32:43;99434.72;;;30.28;44.72
26376;BME280;30544;42.196;24.336;2023-06-22T04:35:10;99439.31;;;30.51;44.28
26376;BME280;30544;42.196;24.336;2023-06-22T04:37:37;99434.22;;;30.61;43.75
26376;BME280;30544;42.196;24.336;2023-06-22T04:40:07;99428.25;;;30.50;43.52
26376;BME280;30544;42.196;24.336;2023-06-22T04:42:34;99434.69;;;30.63;43.76
26376;BME280;30544;42.196;24.336;2023-06-22T04:45:03;99436.19;;;30.76;43.70
26376;BME280;30544;42.196;24.336;2023-06-22T04:47:30;99430.81;;;30.94;43.33
26376;BME280;30544;42.196;24.336;2023-06-22T04:49:56;99431.84;;;31.24;42.52
26376;BME280;30544;42.196;24.336;2023-06-22T04:52:23;99430.75;;;31.32;42.60
26376;BME280;30544;42.196;24.336;2023-06-22T04:54:50;99435.16;;;31.07;42.67
26376;BME280;30544;42.196;24.336;2023-06-22T04:57:22;99430.69;;;31.29;42.18
26376;BME280;30544;42.196;24.336;2023-06-22T04:59:58;99428.34;;;31.34;42.55
26376;BME280;30544;42.196;24.336;2023-06-22T05:02:40;99425.63;;;31.41;41.92
26376;BME280;30544;42.196;24.336;2023-06-22T05:05:07;99421.72;;;31.30;41.94
26376;BME280;30544;42.196;24.336;2023-06-22T05:07:39;99421.81;;;31.14;42.46
26376;BME280;30544;42.196;24.336;2023-06-22T05:10:08;99422.34;;;31.20;43.01
26376;BME280;30544;42.196;24.336;2023-06-22T05:12:38;99417.22;;;31.10;42.96
26376;BME280;30544;42.196;24.336;2023-06-22T05:15:05;99414.59;;;31.01;43.46
26376;BME280;30544;42.196;24.336;2023-06-22T05:17:32;99410.34;;;30.72;43.72
26376;BME280;30544;42.196;24.336;2023-06-22T05:19:59;99410.63;;;30.48;44.48
26376;BME280;30544;42.196;24.336;2023-06-22T05:22:26;99415.91;;;30.46;44.28
26376;BME280;30544;42.196;24.336;2023-06-22T05:24:53;99413.56;;;30.32;45.31
26376;BME280;30544;42.196;24.336;2023-06-22T05:27:19;99413.63;;;30.16;45.67
26376;BME280;30544;42.196;24.336;2023-06-22T05:29:48;99413.94;;;30.11;46.01
26376;BME280;30544;42.196;24.336;2023-06-22T05:32:14;99408.75;;;30.01;46.78
26376;BME280;30544;42.196;24.336;2023-06-22T05:34:41;99416.41;;;29.97;46.67
26376;BME280;30544;42.196;24.336;2023-06-22T05:37:08;99408.97;;;29.92;46.51
26376;BME280;30544;42.196;24.336;2023-06-22T05:39:36;99402.97;;;29.98;47.48
26376;BME280;30544;42.196;24.336;2023-06-22T05:42:04;99401.13;;;29.89;46.89
26376;BME280;30544;42.196;24.336;2023-06-22T05:44:32;99403.63;;;29.91;47.64
26376;BME280;30544;42.196;24.336;2023-06-22T05:47:00;99403.63;;;29.91;47.22
26376;BME280;30544;42.196;24.336;2023-06-22T05:49:28;99418.75;;;29.91;47.52
26376;BME280;30544;42.196;24.336;2023-06-22T05:51:58;99413.66;;;29.85;46.27
26376;BME280;30544;42.196;24.336;2023-06-22T05:54:25;99410.81;;;29.85;46.11
26376;BME280;30544;42.196;24.336;2023-06-22T05:56:51;99412.22;;;29.91;45.32
26376;BME280;30544;42.196;24.336;2023-06-22T05:59:18;99410.63;;;29.93;45.31
26376;BME280;30544;42.196;24.336;2023-06-22T06:01:45;99407.81;;;29.78;45.29
26376;BME280;30544;42.196;24.336;2023-06-22T06:04:17;99403.34;;;29.96;45.27
26376;BME280;30544;42.196;24.336;2023-06-22T06:06:44;99402.88;;;30.10;44.56
26376;BME280;30544;42.196;24.336;2023-06-22T06:09:12;99405.88;;;30.01;44.68
26376;BME280;30544;42.196;24.336;2023-06-22T06:11:39;99403.41;;;30.15;44.07
26376;BME280;30544;42.196;24.336;2023-06-22T06:14:06;99405.88;;;30.17;43.98
26376;BME280;30544;42.196;24.336;2023-06-22T06:16:33;99408.59;;;30.10;43.80
26376;BME280;30544;42.196;24.336;2023-06-22T06:18:59;99420.69;;;30.22;43.20
26376;BME280;30544;42.196;24.336;2023-06-22T06:21:28;99409.81;;;30.28;43.02
26376;BME280;30544;42.196;24.336;2023-06-22T06:23:54;99401.22;;;30.28;43.14
26376;BME280;30544;42.196;24.336;2023-06-22T06:26:21;99408.00;;;30.39;43.47
26376;BME280;30544;42.196;24.336;2023-06-22T06:28:55;99404.03;;;30.44;43.53
26376;BME280;30544;42.196;24.336;2023-06-22T06:31:22;99400.91;;;30.52;43.95
26376;BME280;30544;42.196;24.336;2023-06-22T06:33:49;99396.34;;;30.48;44.39
26376;BME280;30544;42.196;24.336;2023-06-22T06:36:15;99401.91;;;30.60;44.22
26376;BME280;30544;42.196;24.336;2023-06-22T06:38:44;99405.25;;;30.62;44.23
26376;BME280;30544;42.196;24.336;2023-06-22T06:41:12;99399.44;;;30.59;44.42
26376;BME280;30544;42.196;24.336;2023-06-22T06:43:39;99401.84;;;30.76;45.32
26376;BME280;30544;42.196;24.336;2023-06-22T06:46:07;99401.69;;;30.69;43.77
26376;BME280;30544;42.196;24.336;2023-06-22T06:48:34;99402.59;;;30.73;42.77
26376;BME280;30544;42.196;24.336;2023-06-22T06:51:01;99405.16;;;30.78;41.31
26376;BME280;30544;42.196;24.336;2023-06-22T06:53:28;99403.31;;;30.89;41.16
26376;BME280;30544;42.196;24.336;2023-06-22T06:55:56;99407.59;;;30.99;41.19
26376;BME280;30544;42.196;24.336;2023-06-22T06:58:23;99401.28;;;30.90;41.63
26376;BME280;30544;42.196;24.336;2023-06-22T07:00:49;99416.34;;;30.87;41.28
26376;BME280;30544;42.196;24.336;2023-06-22T07:03:16;99413.34;;;30.99;41.02
26376;BME280;30544;42.196;24.336;2023-06-22T07:05:43;99417.47;;;31.01;40.95
26376;BME280;30544;42.196;24.336;2023-06-22T07:08:10;99407.00;;;31.09;41.84
26376;BME280;30544;42.196;24.336;2023-06-22T07:10:37;99414.97;;;31.00;41.78
26376;BME280;30544;42.196;24.336;2023-06-22T07:13:05;99409.09;;;31.12;42.28
26376;BME280;30544;42.196;24.336;2023-06-22T07:15:32;99416.19;;;31.18;42.78
26376;BME280;30544;42.196;24.336;2023-06-22T07:17:59;99426.31;;;31.16;42.32
26376;BME280;30544;42.196;24.336;2023-06-22T07:20:25;99405.69;;;31.26;41.85
26376;BME280;30544;42.196;24.336;2023-06-22T07:22:52;99409.22;;;31.19;41.15
26376;BME280;30544;42.196;24.336;2023-06-22T07:25:19;99401.53;;;31.23;41.91
26376;BME280;30544;42.196;24.336;2023-06-22T07:27:57;99401.72;;;31.11;41.34
26376;BME280;30544;42.196;24.336;2023-06-22T07:30:26;99399.66;;;31.11;41.36
26376;BME280;30544;42.196;24.336;2023-06-22T07:32:52;99407.34;;;31.27;41.02
26376;BME280;30544;42.196;24.336;2023-06-22T07:35:19;99413.56;;;31.32;41.05
26376;BME280;30544;42.196;24.336;2023-06-22T07:37:46;99410.31;;;31.34;40.17
26376;BME280;30544;42.196;24.336;2023-06-22T07:40:13;99414.06;;;31.38;40.27
26376;BME280;30544;42.196;24.336;2023-06-22T07:42:40;99407.06;;;31.35;40.20
26376;BME280;30544;42.196;24.336;2023-06-22T07:45:08;99408.03;;;31.43;40.29
26376;BME280;30544;42.196;24.336;2023-06-22T07:47:36;99407.00;;;31.55;40.58
26376;BME280;30544;42.196;24.336;2023-06-22T07:50:04;99400.13;;;31.59;40.59
26376;BME280;30544;42.196;24.336;2023-06-22T07:52:31;99404.25;;;31.62;40.80
26376;BME280;30544;42.196;24.336;2023-06-22T07:54:58;99396.66;;;31.73;40.64
26376;BME280;30544;42.196;24.336;2023-06-22T07:57:25;99388.06;;;31.73;40.83
26376;BME280;30544;42.196;24.336;2023-06-22T07:59:57;99383.63;;;31.76;40.96
26376;BME280;30544;42.196;24.336;2023-06-22T08:02:25;99382.03;;;31.78;40.34
26376;BME280;30544;42.196;24.336;2023-06-22T08:04:53;99379.59;;;31.80;40.23
26376;BME280;30544;42.196;24.336;2023-06-22T08:07:19;99387.53;;;31.90;40.20
26376;BME280;30544;42.196;24.336;2023-06-22T08:09:47;99389.69;;;31.97;40.07
26376;BME280;30544;42.196;24.336;2023-06-22T08:12:14;99380.34;;;32.03;40.17
26376;BME280;30544;42.196;24.336;2023-06-22T08:14:42;99384.19;;;32.15;40.52
26376;BME280;30544;42.196;24.336;2023-06-22T08:17:09;99375.16;;;32.13;39.09
26376;BME280;30544;42.196;24.336;2023-06-22T08:19:37;99369.50;;;32.20;39.40
26376;BME280;30544;42.196;24.336;2023-06-22T08:22:06;99364.66;;;32.24;39.21
26376;BME280;30544;42.196;24.336;2023-06-22T08:24:32;99364.75;;;32.27;38.96
26376;BME280;30544;42.196;24.336;2023-06-22T08:26:59;99362.31;;;32.29;39.01
26376;BME280;30544;42.196;24.336;2023-06-22T08:29:26;99366.94;;;32.41;39.83
26376;BME280;30544;42.196;24.336;2023-06-22T08:31:53;99366.19;;;32.44;38.73
26376;BME280;30544;42.196;24.336;2023-06-22T08:34:20;99365.38;;;32.44;38.04
26376;BME280;30544;42.196;24.336;2023-06-22T08:36:48;99366.66;;;32.50;38.12
26376;BME280;30544;42.196;24.336;2023-06-22T08:39:19;99362.97;;;32.49;37.75
26376;BME280;30544;42.196;24.336;2023-06-22T08:41:46;99361.34;;;32.52;37.00
26376;BME280;30544;42.196;24.336;2023-06-22T08:44:13;99362.34;;;32.67;36.75
26376;BME280;30544;42.196;24.336;2023-06-22T08:46:40;99356.56;;;32.63;36.39
26376;BME280;30544;42.196;24.336;2023-06-22T08:49:07;99364.94;;;32.79;38.58
26376;BME280;30544;42.196;24.336;2023-06-22T08:51:35;99371.53;;;32.79;35.83
26376;BME280;30544;42.196;24.336;2023-06-22T08:54:02;99372.41;;;32.83;34.95
26376;BME280;30544;42.196;24.336;2023-06-22T08:56:30;99358.56;;;32.93;34.41
26376;BME280;30544;42.196;24.336;2023-06-22T08:58:56;99357.88;;;33.06;34.08
26376;BME280;30544;42.196;24.336;2023-06-22T09:01:23;99359.91;;;33.06;34.82
26376;BME280;30544;42.196;24.336;2023-06-22T09:03:50;99356.34;;;33.19;34.76
26376;BME280;30544;42.196;24.336;2023-06-22T09:06:22;99354.38;;;33.27;33.48
26376;BME280;30544;42.196;24.336;2023-06-22T09:08:49;99352.41;;;33.35;30.05
26376;BME280;30544;42.196;24.336;2023-06-22T09:11:16;99350.47;;;33.46;31.54
26376;BME280;30544;42.196;24.336;2023-06-22T09:13:45;99349.72;;;33.56;32.22
26376;BME280;30544;42.196;24.336;2023-06-22T09:16:12;99343.22;;;33.66;30.10
26376;BME280;30544;42.196;24.336;2023-06-22T09:18:39;99340.34;;;33.66;30.80
26376;BME280;30544;42.196;24.336;2023-06-22T09:21:06;99344.56;;;33.79;29.73
26376;BME280;30544;42.196;24.336;2023-06-22T09:23:33;99346.25;;;33.88;30.35
26376;BME280;30544;42.196;24.336;2023-06-22T09:26:00;99339.78;;;34.05;30.29
26376;BME280;30544;42.196;24.336;2023-06-22T09:28:27;99346.84;;;34.18;31.04
26376;BME280;30544;42.196;24.336;2023-06-22T09:30:55;99337.00;;;34.26;30.79
26376;BME280;30544;42.196;24.336;2023-06-22T09:33:23;99330.47;;;34.29;30.53
26376;BME280;30544;42.196;24.336;2023-06-22T09:35:50;99338.31;;;34.36;30.78
26376;BME280;30544;42.196;24.336;2023-06-22T09:38:17;99342.91;;;34.48;31.10
26376;BME280;30544;42.196;24.336;2023-06-22T09:40:44;99335.88;;;34.42;30.77
26376;BME280;30544;42.196;24.336;2023-06-22T09:43:11;99335.47;;;34.43;30.60
26376;BME280;30544;42.196;24.336;2023-06-22T09:45:38;99331.81;;;34.53;31.17
26376;BME280;30544;42.196;24.336;2023-06-22T09:48:07;99330.63;;;34.68;30.01
26376;BME280;30544;42.196;24.336;2023-06-22T09:50:35;99334.38;;;34.83;31.48
26376;BME280;30544;42.196;24.336;2023-06-22T09:53:02;99336.06;;;34.95;31.30
26376;BME280;30544;42.196;24.336;2023-06-22T09:55:28;99336.06;;;34.95;31.45
26376;BME280;30544;42.196;24.336;2023-06-22T09:57:55;99343.47;;;35.10;31.06
26376;BME280;30544;42.196;24.336;2023-06-22T10:00:22;99328.66;;;35.08;31.74
26376;BME280;30544;42.196;24.336;2023-06-22T10:02:49;99329.91;;;35.14;32.18
26376;BME280;30544;42.196;24.336;2023-06-22T10:05:17;99336.50;;;35.22;30.82
26376;BME280;30544;42.196;24.336;2023-06-22T10:07:44;99324.16;;;35.28;32.27
26376;BME280;30544;42.196;24.336;2023-06-22T10:10:12;99321.28;;;35.28;31.32
26376;BME280;30544;42.196;24.336;2023-06-22T10:12:42;99330.34;;;35.31;31.11
26376;BME280;30544;42.196;24.336;2023-06-22T10:15:10;99327.88;;;35.33;30.74
26376;BME280;30544;42.196;24.336;2023-06-22T10:17:37;99325.41;;;35.38;30.31
26376;BME280;30544;42.196;24.336;2023-06-22T10:20:05;99322.13;;;35.40;30.32
26376;BME280;30544;42.196;24.336;2023-06-22T10:22:38;99315.53;;;35.53;31.56
26376;BME280;30544;42.196;24.336;2023-06-22T10:25:06;99313.06;;;35.63;31.06
26376;BME280;30544;42.196;24.336;2023-06-22T10:27:33;99306.03;;;35.60;30.14
26376;BME280;30544;42.196;24.336;2023-06-22T10:30:00;99303.97;;;35.71;30.73
26376;BME280;30544;42.196;24.336;2023-06-22T10:32:27;99301.06;;;35.71;30.16
26376;BME280;30544;42.196;24.336;2023-06-22T10:34:54;99302.28;;;35.77;31.15
26376;BME280;30544;42.196;24.336;2023-06-22T10:37:21;99292.00;;;35.80;30.28
26376;BME280;30544;42.196;24.336;2023-06-22T10:39:49;99289.97;;;35.84;30.73
26376;BME280;30544;42.196;24.336;2023-06-22T10:42:16;99287.03;;;35.91;30.01
26376;BME280;30544;42.196;24.336;2023-06-22T10:44:43;99287.47;;;35.97;29.24
26376;BME280;30544;42.196;24.336;2023-06-22T10:47:10;99282.50;;;35.90;30.27
26376;BME280;30544;42.196;24.336;2023-06-22T10:49:37;99284.13;;;36.02;29.66
26376;BME280;30544;42.196;24.336;2023-06-22T10:52:06;99273.00;;;36.00;30.05
26376;BME280;30544;42.196;24.336;2023-06-22T10:54:33;99275.41;;;36.20;29.53
26376;BME280;30544;42.196;24.336;2023-06-22T10:57:02;99270.81;;;36.26;30.12
26376;BME280;30544;42.196;24.336;2023-06-22T10:59:28;99274.97;;;36.32;29.60
26376;BME280;30544;42.196;24.336;2023-06-22T11:01:55;99270.84;;;36.33;29.16
26376;BME280;30544;42.196;24.336;2023-06-22T11:04:23;99270.84;;;36.33;29.78
26376;BME280;30544;42.196;24.336;2023-06-22T11:06:50;99269.97;;;36.39;30.61
26376;BME280;30544;42.196;24.336;2023-06-22T11:09:17;99262.16;;;36.26;29.14
26376;BME280;30544;42.196;24.336;2023-06-22T11:11:46;99271.72;;;36.15;29.84
26376;BME280;30544;42.196;24.336;2023-06-22T11:14:14;99269.19;;;36.28;29.76
26376;BME280;30544;42.196;24.336;2023-06-22T11:16:41;99270.00;;;36.29;29.29
26376;BME280;30544;42.196;24.336;2023-06-22T11:19:08;99271.72;;;36.15;29.43
26376;BME280;30544;42.196;24.336;2023-06-22T11:21:35;99267.59;;;36.09;29.56
26376;BME280;30544;42.196;24.336;2023-06-22T11:24:05;99266.84;;;35.98;29.33
26376;BME280;30544;42.196;24.336;2023-06-22T11:26:33;99268.94;;;35.87;29.21
26376;BME280;30544;42.196;24.336;2023-06-22T11:29:01;99269.34;;;35.82;29.33
26376;BME280;30544;42.196;24.336;2023-06-22T11:31:31;99267.25;;;35.93;30.37
26376;BME280;30544;42.196;24.336;2023-06-22T11:33:58;99261.09;;;35.91;29.32
26376;BME280;30544;42.196;24.336;2023-06-22T11:36:26;99267.69;;;35.77;29.95
26376;BME280;30544;42.196;24.336;2023-06-22T11:38:52;99261.13;;;35.70;30.01
26376;BME280;30544;42.196;24.336;2023-06-22T11:41:19;99258.28;;;35.63;30.30
26376;BME280;30544;42.196;24.336;2023-06-22T11:43:46;99265.28;;;35.40;30.16
26376;BME280;30544;42.196;24.336;2023-06-22T11:46:13;99267.75;;;35.49;31.29
26376;BME280;30544;42.196;24.336;2023-06-22T11:48:41;99266.94;;;35.34;31.65
26376;BME280;30544;42.196;24.336;2023-06-22T11:51:08;99262.81;;;35.21;32.42
26376;BME280;30544;42.196;24.336;2023-06-22T11:53:35;99269.84;;;35.13;32.59
26376;BME280;30544;42.196;24.336;2023-06-22T11:56:02;99265.72;;;35.00;31.63
26376;BME280;30544;42.196;24.336;2023-06-22T11:58:29;99264.44;;;34.93;31.56
26376;BME280;30544;42.196;24.336;2023-06-22T12:00:55;99265.25;;;34.80;31.53
26376;BME280;30544;42.196;24.336;2023-06-22T12:03:22;99261.16;;;34.77;32.29
26376;BME280;30544;42.196;24.336;2023-06-22T12:05:51;99262.75;;;34.60;32.24
26376;BME280;30544;42.196;24.336;2023-06-22T12:08:18;99261.50;;;34.54;32.27
26376;BME280;30544;42.196;24.336;2023-06-22T12:10:44;99261.91;;;34.53;32.46
26376;BME280;30544;42.196;24.336;2023-06-22T12:13:11;99269.72;;;34.49;32.39
26376;BME280;30544;42.196;24.336;2023-06-22T12:15:38;99269.31;;;34.47;33.21
26376;BME280;30544;42.196;24.336;2023-06-22T12:18:05;99278.28;;;34.34;34.36
26376;BME280;30544;42.196;24.336;2023-06-22T12:20:32;99288.06;;;34.12;44.72
26376;BME280;30544;42.196;24.336;2023-06-22T12:23:01;99301.41;;;31.57;62.56
26376;BME280;30544;42.196;24.336;2023-06-22T12:25:28;99297.25;;;30.01;68.02
26376;BME280;30544;42.196;24.336;2023-06-22T12:27:55;99288.66;;;30.17;67.73
26376;BME280;30544;42.196;24.336;2023-06-22T12:30:22;99289.63;;;30.05;69.21
26376;BME280;30544;42.196;24.336;2023-06-22T12:32:48;99282.53;;;29.80;65.28
26376;BME280;30544;42.196;24.336;2023-06-22T12:35:16;99276.44;;;29.81;61.36
26376;BME280;30544;42.196;24.336;2023-06-22T12:37:43;99278.00;;;29.98;62.96
26376;BME280;30544;42.196;24.336;2023-06-22T12:40:12;99271.50;;;30.17;65.33
26376;BME280;30544;42.196;24.336;2023-06-22T12:42:40;99278.66;;;30.27;62.68
26376;BME280;30544;42.196;24.336;2023-06-22T12:45:08;99268.31;;;30.41;62.36
26376;BME280;30544;42.196;24.336;2023-06-22T12:47:34;99272.34;;;30.60;62.46
26376;BME280;30544;42.196;24.336;2023-06-22T12:50:01;99261.09;;;30.70;58.09
26376;BME280;30544;42.196;24.336;2023-06-22T12:52:30;99261.50;;;30.92;58.49